Time;durP1;ratioP1;P1;durP2;ratioP2;P2;SDS_P1;SDS_P2;PMS_P1;PMS_P2;Temp;Humidity;BMP_temperature;BMP_pressure;BME280_temperature;BME280_humidity;BME280_pressure;Samples;Min_cycle;Max_cycle;Signal;HPM_P1;HPM_P2
2022/01/14 00:01:51;;;;;;;48.55;15.27;;;;;;;3.69;100.00;103879.94;5025987;28;20125;-74
2022/01/14 00:04:17;;;;;;;70.93;18.48;;;;;;;3.71;100.00;103874.09;5018387;28;20104;-74
2022/01/14 00:06:43;;;;;;;110.13;17.40;;;;;;;3.66;100.00;103875.41;5032333;28;20489;-75
2022/01/14 00:09:11;;;;;;;118.03;18.27;;;;;;;3.64;100.00;103882.13;5027803;28;20136;-74
2022/01/14 00:11:45;;;;;;;81.60;17.85;;;;;;;3.62;100.00;103878.47;5029277;28;20496;-74
2022/01/14 00:14:22;;;;;;;146.10;20.58;;;;;;;3.64;100.00;103876.03;5018111;28;20049;-73
2022/01/14 00:16:48;;;;;;;119.82;20.48;;;;;;;3.66;100.00;103867.59;5022138;28;20040;-74
2022/01/14 00:19:14;;;;;;;55.03;15.82;;;;;;;3.71;100.00;103858.47;5022499;28;20042;-74
2022/01/14 00:21:42;;;;;;;83.68;19.23;;;;;;;3.68;100.00;103857.31;5020265;28;20101;-74
2022/01/14 00:31:36;;;;;;;77.97;17.88;;;;;;;3.67;100.00;103851.16;5020650;28;20056;-75
2022/01/14 00:34:55;;;;;;;63.92;18.00;;;;;;;3.56;100.00;103820.59;5027827;28;20047;-74
2022/01/14 00:37:21;;;;;;;59.03;17.33;;;;;;;3.56;100.00;103825.81;5031109;28;20025;-74
2022/01/14 00:39:47;;;;;;;67.45;18.13;;;;;;;3.52;100.00;103823.69;5027855;28;20473;-74
2022/01/14 00:42:13;;;;;;;68.05;17.77;;;;;;;3.54;100.00;103827.34;5020923;28;20026;-74
2022/01/14 00:44:39;;;;;;;57.88;16.58;;;;;;;3.54;100.00;103816.94;5035006;28;20052;-73
2022/01/14 00:47:04;;;;;;;67.70;17.88;;;;;;;3.49;100.00;103816.50;5032718;28;20041;-74
2022/01/14 00:49:30;;;;;;;59.40;17.65;;;;;;;3.48;100.00;103811.16;5033629;28;20025;-74
2022/01/14 00:51:57;;;;;;;64.32;18.20;;;;;;;3.50;100.00;103814.81;5029281;28;20037;-75
2022/01/14 00:54:24;;;;;;;67.15;17.85;;;;;;;3.51;100.00;103807.19;5027579;28;20084;-74
2022/01/14 00:57:03;;;;;;;58.65;17.23;;;;;;;3.50;100.00;103807.00;5033290;28;20029;-74
2022/01/14 00:59:29;;;;;;;63.45;17.38;;;;;;;3.48;100.00;103811.16;5030717;28;20033;-74
2022/01/14 01:01:58;;;;;;;54.03;16.77;;;;;;;3.49;100.00;103805.19;5023873;28;20044;-74
2022/01/14 01:04:29;;;;;;;78.32;17.90;;;;;;;3.50;100.00;103804.41;5027073;28;20026;-74
2022/01/14 01:06:56;;;;;;;112.95;19.13;;;;;;;3.46;100.00;103797.06;5020031;28;20103;-76
2022/01/14 01:09:24;;;;;;;87.70;17.95;;;;;;;3.42;100.00;103797.56;5026090;28;20387;-74
2022/01/14 01:12:14;;;;;;;82.30;19.20;;;;;;;3.41;100.00;103793.16;5026116;28;20103;-74
2022/01/14 01:14:44;;;;;;;57.25;16.83;;;;;;;3.42;100.00;103785.50;5022237;28;20107;-74
2022/01/14 01:17:10;;;;;;;66.93;18.63;;;;;;;3.43;100.00;103791.59;5029543;28;20117;-75
2022/01/14 01:19:35;;;;;;;79.60;19.40;;;;;;;3.42;100.00;103789.75;5021556;28;20029;-74
2022/01/14 01:22:01;;;;;;;82.95;19.00;;;;;;;3.42;100.00;103801.09;5027198;28;20026;-75
2022/01/14 01:24:26;;;;;;;68.10;19.75;;;;;;;3.39;100.00;103795.59;5020436;28;20025;-75
2022/01/14 01:26:52;;;;;;;73.35;20.23;;;;;;;3.31;100.00;103794.88;5034475;28;20037;-75
2022/01/14 01:29:42;;;;;;;74.95;20.30;;;;;;;3.37;100.00;103787.63;5028891;28;20037;-73
2022/01/14 01:32:05;;;;;;;73.18;19.83;;;;;;;3.34;100.00;103784.75;5025666;28;20033;-74
2022/01/14 01:34:30;;;;;;;76.05;18.95;;;;;;;3.33;100.00;103777.72;5025978;28;20052;-74
2022/01/14 01:36:57;;;;;;;66.72;19.27;;;;;;;3.37;100.00;103766.81;5034577;28;20060;-74
2022/01/14 01:39:33;;;;;;;81.13;19.92;;;;;;;3.31;100.00;103781.88;5033156;28;20049;-74
2022/01/14 01:42:00;;;;;;;88.53;20.30;;;;;;;3.29;100.00;103777.28;5027127;28;20025;-74
2022/01/14 01:44:27;;;;;;;59.50;19.77;;;;;;;3.27;100.00;103773.63;5017758;28;20037;-74
2022/01/14 01:46:54;;;;;;;61.35;20.90;;;;;;;3.24;100.00;103774.25;5022677;28;20494;-74
2022/01/14 01:49:25;;;;;;;62.95;21.52;;;;;;;3.25;100.00;103786.50;5033013;28;20095;-74
2022/01/14 01:51:51;;;;;;;56.92;21.77;;;;;;;3.23;100.00;103787.13;5026810;28;20037;-74
2022/01/14 01:54:18;;;;;;;64.20;21.83;;;;;;;3.21;100.00;103789.59;5033241;28;20037;-75
2022/01/14 01:56:44;;;;;;;75.25;22.45;;;;;;;3.18;100.00;103789.31;5025493;28;20105;-75
2022/01/14 01:59:11;;;;;;;61.40;20.05;;;;;;;3.18;100.00;103794.50;5034441;28;20084;-74
2022/01/14 02:01:40;;;;;;;67.07;19.67;;;;;;;3.18;100.00;103789.31;5021655;28;20026;-73
2022/01/14 02:04:07;;;;;;;79.13;20.63;;;;;;;3.15;100.00;103794.22;5027533;28;20433;-73
2022/01/14 02:06:32;;;;;;;64.05;19.67;;;;;;;3.14;100.00;103790.69;5027696;28;20030;-74
2022/01/14 02:08:58;;;;;;;92.63;22.40;;;;;;;3.15;100.00;103789.03;5033525;28;20025;-73
2022/01/14 02:11:24;;;;;;;62.90;20.60;;;;;;;3.16;100.00;103786.56;5028165;28;20042;-73
2022/01/14 02:13:51;;;;;;;67.45;19.45;;;;;;;3.13;100.00;103787.94;5024073;28;20488;-74
2022/01/14 02:16:31;;;;;;;90.18;20.17;;;;;;;3.11;100.00;103792.09;5041865;28;20320;-75
2022/01/14 02:19:22;;;;;;;48.50;18.15;;;;;;;3.11;100.00;103795.59;5030779;28;20033;-74
2022/01/14 02:27:04;;;;;;;126.57;21.38;;;;;;;3.11;100.00;103781.69;5032494;28;20536;-74
2022/01/14 02:29:30;;;;;;;131.70;21.63;;;;;;;3.08;100.00;103776.19;5030569;28;20026;-74
2022/01/14 02:31:55;;;;;;;77.25;19.65;;;;;;;3.08;100.00;103777.13;5025694;28;20029;-74
2022/01/14 02:34:21;;;;;;;78.75;18.85;;;;;;;3.00;100.00;103775.47;5033817;28;20504;-73
2022/01/14 02:36:47;;;;;;;72.35;18.38;;;;;;;3.06;100.00;103777.75;5022714;28;20432;-74
2022/01/14 02:39:15;;;;;;;91.93;18.17;;;;;;;3.06;100.00;103789.03;5018361;28;20612;-73
2022/01/14 02:41:43;;;;;;;60.50;17.48;;;;;;;3.06;100.00;103788.16;5025610;28;20401;-74
2022/01/14 02:44:18;;;;;;;78.53;17.95;;;;;;;2.97;100.00;103788.16;5021741;28;20044;-74
2022/01/14 02:46:53;;;;;;;54.22;17.67;;;;;;;2.94;100.00;103788.78;5033040;28;20040;-74
2022/01/14 02:49:26;;;;;;;50.38;17.70;;;;;;;2.94;100.00;103794.00;5030810;28;20029;-75
2022/01/14 02:51:52;;;;;;;60.97;18.95;;;;;;;2.92;100.00;103794.66;5030488;28;20036;-74
2022/01/14 02:54:22;;;;;;;46.05;17.75;;;;;;;2.95;100.00;103788.03;5021409;28;20458;-75
2022/01/14 02:56:52;;;;;;;50.10;18.80;;;;;;;2.94;100.00;103795.69;5027698;28;20117;-75
2022/01/14 02:59:19;;;;;;;45.22;18.02;;;;;;;2.94;100.00;103794.00;5016188;28;20026;-74
2022/01/14 03:01:46;;;;;;;49.45;17.83;;;;;;;2.95;100.00;103794.94;5020089;28;20083;-73
2022/01/14 03:04:14;;;;;;;51.60;18.45;;;;;;;2.89;100.00;103790.06;5012378;28;20760;-73
2022/01/14 03:06:40;;;;;;;69.18;19.70;;;;;;;2.82;100.00;103780.75;5020956;28;20133;-73
2022/01/14 03:09:06;;;;;;;67.72;19.10;;;;;;;2.86;100.00;103789.75;5030512;28;20052;-74
2022/01/14 03:11:41;;;;;;;113.60;19.70;;;;;;;2.91;100.00;103798.91;5032187;28;20037;-74
2022/01/14 03:14:09;;;;;;;84.28;19.58;;;;;;;2.87;100.00;103797.69;5028175;28;20025;-74
2022/01/14 03:16:39;;;;;;;79.43;19.17;;;;;;;2.86;100.00;103805.34;5023015;28;20025;-73
2022/01/14 03:19:09;;;;;;;91.22;20.20;;;;;;;2.87;100.00;103802.00;5024350;28;20045;-74
2022/01/14 03:21:40;;;;;;;72.70;20.33;;;;;;;2.89;100.00;103794.31;5029794;28;20029;-74
2022/01/14 03:27:05;;;;;;;63.92;19.00;;;;;;;2.89;100.00;103784.88;5004048;28;20099;-74
2022/01/14 03:29:30;;;;;;;58.25;19.70;;;;;;;2.91;100.00;103775.50;5025667;28;20109;-73
2022/01/14 03:31:56;;;;;;;42.03;19.17;;;;;;;2.94;100.00;103780.97;5021550;28;20481;-74
2022/01/14 03:34:21;;;;;;;49.45;19.90;;;;;;;2.89;100.00;103779.66;5024946;28;20471;-74
2022/01/14 03:36:47;;;;;;;67.95;20.75;;;;;;;2.89;100.00;103779.66;5026455;28;20097;-74
2022/01/14 03:39:12;;;;;;;78.90;19.95;;;;;;;2.87;100.00;103776.88;5027310;28;20053;-75
2022/01/14 03:41:38;;;;;;;50.95;18.88;;;;;;;2.92;100.00;103774.75;5021480;28;20079;-74
2022/01/14 03:44:04;;;;;;;52.85;19.17;;;;;;;2.93;100.00;103768.78;5018253;28;20029;-74
2022/01/14 03:46:29;;;;;;;49.67;19.00;;;;;;;2.91;100.00;103767.69;5032535;28;20105;-74
2022/01/14 03:48:54;;;;;;;56.67;21.42;;;;;;;2.90;100.00;103771.06;5031095;28;20041;-74
2022/01/14 03:51:20;;;;;;;79.55;21.35;;;;;;;2.91;100.00;103772.00;5029110;28;20033;-75
2022/01/14 03:53:47;;;;;;;96.20;22.58;;;;;;;2.93;100.00;103770.44;5030349;28;20025;-75
2022/01/14 03:56:13;;;;;;;59.30;20.48;;;;;;;2.93;100.00;103760.97;5021108;28;20084;-74
2022/01/14 03:58:39;;;;;;;83.82;21.83;;;;;;;2.91;100.00;103759.91;5028697;28;20417;-73
2022/01/14 04:01:06;;;;;;;49.72;20.85;;;;;;;2.91;100.00;103767.69;5024652;28;20095;-74
2022/01/14 04:03:31;;;;;;;92.85;23.98;;;;;;;2.92;100.00;103766.94;5030109;28;20034;-74
2022/01/14 04:05:57;;;;;;;90.00;22.25;;;;;;;2.91;100.00;103762.50;5028247;28;20397;-74
2022/01/14 04:08:22;;;;;;;101.18;27.60;;;;;;;2.87;100.00;103753.47;5018257;28;20040;-73
2022/01/14 04:10:51;;;;;;;69.53;22.27;;;;;;;2.84;100.00;103749.69;5022969;28;20068;-74
2022/01/14 04:13:20;;;;;;;90.60;21.70;;;;;;;2.86;100.00;103745.53;5031869;28;20489;-73
2022/01/14 04:15:47;;;;;;;86.70;23.65;;;;;;;2.86;100.00;103754.28;5021377;28;20091;-73
2022/01/14 04:18:15;;;;;;;114.90;22.10;;;;;;;2.81;100.00;103745.09;5027639;28;20133;-73
2022/01/14 04:20:42;;;;;;;67.45;22.35;;;;;;;2.80;100.00;103743.28;5031710;28;20473;-73
2022/01/14 04:23:11;;;;;;;88.78;22.25;;;;;;;2.78;100.00;103750.03;5019649;28;20037;-74
2022/01/14 04:25:36;;;;;;;57.42;21.70;;;;;;;2.79;100.00;103746.63;5039782;28;20049;-73
2022/01/14 04:28:03;;;;;;;89.95;21.38;;;;;;;2.82;100.00;103740.81;5013178;28;20029;-73
2022/01/14 04:30:29;;;;;;;117.03;21.25;;;;;;;2.80;100.00;103724.16;5014397;28;20104;-73
2022/01/14 04:32:54;;;;;;;168.90;23.13;;;;;;;2.76;100.00;103724.66;5013154;28;20537;-73
2022/01/14 04:35:20;;;;;;;100.47;22.80;;;;;;;2.76;100.00;103720.34;5018371;28;20029;-73
2022/01/14 04:37:45;;;;;;;121.00;27.08;;;;;;;2.75;100.00;103713.31;5029205;28;20409;-73
2022/01/14 04:40:13;;;;;;;81.07;23.33;;;;;;;2.74;100.00;103707.97;5023757;28;20034;-73
2022/01/14 04:42:41;;;;;;;101.68;22.58;;;;;;;2.75;100.00;103709.81;5031996;28;20112;-73
2022/01/14 04:45:08;;;;;;;97.35;22.88;;;;;;;2.75;100.00;103708.09;5018035;28;20025;-73
2022/01/14 04:47:44;;;;;;;108.68;21.40;;;;;;;2.78;100.00;103704.88;5029360;28;20036;-74
2022/01/14 04:50:18;;;;;;;74.28;20.00;;;;;;;2.75;100.00;103707.19;5019422;28;20017;-73
2022/01/14 04:52:46;;;;;;;147.82;23.60;;;;;;;2.72;100.00;103717.31;5023897;28;20036;-73
2022/01/14 04:55:13;;;;;;;74.07;20.83;;;;;;;2.68;100.00;103701.41;5017396;28;20030;-73
2022/01/14 04:57:39;;;;;;;67.60;18.33;;;;;;;2.69;100.00;103698.03;5021255;28;20040;-73
2022/01/14 05:00:18;;;;;;;55.55;18.45;;;;;;;2.70;100.00;103698.97;5024739;28;20038;-73
2022/01/14 05:02:43;;;;;;;50.30;19.38;;;;;;;2.70;100.00;103701.59;5026689;28;20038;-73
2022/01/14 05:05:10;;;;;;;57.45;19.92;;;;;;;2.66;100.00;103700.38;5023601;28;20436;-74
2022/01/14 05:07:36;;;;;;;65.68;17.52;;;;;;;2.67;100.00;103693.47;5027065;28;20029;-74
2022/01/14 05:12:30;;;;;;;65.28;17.67;;;;;;;2.61;100.00;103696.41;5032677;28;20103;-74
2022/01/14 05:14:55;;;;;;;64.65;21.83;;;;;;;2.61;100.00;103691.22;5030369;28;20061;-73
2022/01/14 05:17:20;;;;;;;43.72;19.73;;;;;;;2.63;100.00;103689.69;5034430;28;20060;-73
2022/01/14 05:19:46;;;;;;;50.40;19.58;;;;;;;2.61;100.00;103677.31;5026591;28;20026;-73
2022/01/14 05:22:12;;;;;;;56.65;19.52;;;;;;;2.60;100.00;103675.47;5025950;28;20036;-73
2022/01/14 05:24:37;;;;;;;41.00;18.27;;;;;;;2.59;100.00;103669.38;5034803;28;20426;-73
2022/01/14 05:27:03;;;;;;;54.15;19.45;;;;;;;2.59;100.00;103665.84;5027634;28;20462;-73
2022/01/14 05:29:29;;;;;;;42.28;18.50;;;;;;;2.57;100.00;103670.00;5028279;28;20115;-73
2022/01/14 05:32:02;;;;;;;57.80;20.08;;;;;;;2.54;100.00;103670.59;5022188;28;20039;-73
2022/01/14 05:34:28;;;;;;;66.30;19.42;;;;;;;2.55;100.00;103666.31;5016409;28;20018;-73
2022/01/14 05:36:54;;;;;;;92.25;21.80;;;;;;;2.52;100.00;103673.06;5021749;28;20069;-74
2022/01/14 05:39:20;;;;;;;63.55;20.52;;;;;;;2.51;100.00;103672.94;5023991;28;20080;-73
2022/01/14 05:41:46;;;;;;;70.82;20.30;;;;;;;2.48;100.00;103660.56;5024752;28;20046;-73
2022/01/14 05:44:12;;;;;;;69.47;19.98;;;;;;;2.46;100.00;103664.66;5031703;28;20034;-74
2022/01/14 05:46:37;;;;;;;44.35;18.95;;;;;;;2.46;100.00;103666.38;5033755;28;20052;-73
2022/01/14 05:49:03;;;;;;;61.88;19.52;;;;;;;2.44;100.00;103673.09;5032853;28;20397;-74
2022/01/14 05:51:28;;;;;;;49.42;19.30;;;;;;;2.40;100.00;103683.97;5027037;28;20087;-74
2022/01/14 05:53:55;;;;;;;42.72;19.08;;;;;;;2.36;100.00;103675.88;5032164;28;20181;-74
2022/01/14 05:56:20;;;;;;;55.15;19.13;;;;;;;2.33;100.00;103679.84;5035661;28;20026;-74
2022/01/14 05:58:45;;;;;;;40.47;18.80;;;;;;;2.29;100.00;103678.66;5023984;28;20059;-74
2022/01/14 06:01:10;;;;;;;59.88;21.85;;;;;;;2.26;100.00;103678.34;5024125;28;20087;-74
2022/01/14 06:03:36;;;;;;;44.97;19.90;;;;;;;2.24;100.00;103671.16;5026852;28;20083;-74
2022/01/14 06:06:01;;;;;;;48.90;21.20;;;;;;;2.22;100.00;103671.03;5027077;28;20033;-75
2022/01/14 06:08:27;;;;;;;44.88;18.48;;;;;;;2.23;100.00;103661.56;5030452;28;20033;-75
2022/01/14 06:10:52;;;;;;;62.17;22.17;;;;;;;2.22;100.00;103676.22;5030706;28;20037;-75
2022/01/14 06:13:17;;;;;;;44.75;20.00;;;;;;;2.21;100.00;103684.78;5030852;28;20065;-75
2022/01/14 06:15:43;;;;;;;50.65;19.65;;;;;;;2.21;100.00;103676.97;5031946;28;20029;-74
2022/01/14 06:18:08;;;;;;;79.68;21.13;;;;;;;2.20;100.00;103685.56;5029580;28;20026;-74
2022/01/14 06:20:33;;;;;;;63.75;20.25;;;;;;;2.19;100.00;103674.25;5021192;28;20450;-74
2022/01/14 06:22:59;;;;;;;52.40;19.52;;;;;;;2.14;100.00;103672.91;5029694;28;20156;-73
2022/01/14 06:25:25;;;;;;;65.97;20.17;;;;;;;2.12;100.00;103674.44;5022928;28;20052;-74
2022/01/14 06:27:50;;;;;;;51.90;19.70;;;;;;;2.10;100.00;103680.25;5030231;28;20033;-74
2022/01/14 06:30:16;;;;;;;51.13;20.25;;;;;;;2.09;100.00;103683.59;5022374;28;20058;-74
2022/01/14 06:32:42;;;;;;;43.35;18.75;;;;;;;2.08;100.00;103680.09;5019044;28;20072;-73
2022/01/14 06:35:13;;;;;;;46.95;19.55;;;;;;;2.06;100.00;103672.91;5020516;28;20470;-74
2022/01/14 06:37:39;;;;;;;109.05;22.13;;;;;;;2.06;100.00;103667.72;5020512;28;20037;-74
2022/01/14 06:40:06;;;;;;;60.17;19.45;;;;;;;2.05;100.00;103686.66;5022128;28;20065;-74
2022/01/14 06:42:32;;;;;;;119.22;20.75;;;;;;;2.06;100.00;103683.31;5025768;28;20524;-73
2022/01/14 06:44:57;;;;;;;110.00;23.15;;;;;;;2.07;100.00;103693.84;5021753;28;20058;-74
2022/01/14 06:47:23;;;;;;;52.55;20.05;;;;;;;2.08;100.00;103703.47;5024198;28;20116;-74
2022/01/14 06:49:48;;;;;;;77.38;21.55;;;;;;;2.09;100.00;103712.16;5027505;28;20096;-71
2022/01/14 06:52:14;;;;;;;78.63;22.05;;;;;;;2.10;100.00;103712.31;5023758;28;20453;-74
2022/01/14 06:54:40;;;;;;;64.78;21.85;;;;;;;2.10;100.00;103711.41;5017749;28;20033;-74
2022/01/14 06:57:05;;;;;;;207.48;23.45;;;;;;;2.10;100.00;103714.00;5029758;28;20075;-74
2022/01/14 06:59:31;;;;;;;73.18;21.42;;;;;;;2.08;100.00;103723.34;5030267;28;20079;-74
2022/01/14 07:01:56;;;;;;;109.45;22.25;;;;;;;2.09;100.00;103719.97;5020361;28;20366;-74
2022/01/14 07:04:21;;;;;;;50.05;20.17;;;;;;;2.08;100.00;103712.97;5021619;28;20091;-74
2022/01/14 07:06:47;;;;;;;64.55;21.02;;;;;;;2.07;100.00;103716.31;5028004;28;20037;-74
2022/01/14 07:09:12;;;;;;;46.72;19.83;;;;;;;2.07;100.00;103708.53;5027727;28;20037;-73
2022/01/14 07:11:38;;;;;;;75.50;23.83;;;;;;;2.07;100.00;103712.03;5022156;28;20030;-74
2022/01/14 07:14:05;;;;;;;46.30;18.20;;;;;;;2.10;100.00;103712.31;5023313;28;20990;-73
2022/01/14 07:16:32;;;;;;;76.45;21.60;;;;;;;2.08;100.00;103707.75;5022693;28;20070;-74
2022/01/14 07:18:57;;;;;;;49.05;19.63;;;;;;;2.09;100.00;103712.16;5026089;28;20044;-74
2022/01/14 07:21:22;;;;;;;71.57;20.05;;;;;;;2.08;100.00;103711.25;5023366;28;20030;-74
2022/01/14 07:23:48;;;;;;;64.78;19.98;;;;;;;2.09;100.00;103714.75;5016256;28;20032;-75
2022/01/14 07:26:13;;;;;;;60.28;22.00;;;;;;;2.10;100.00;103714.00;5022138;28;20104;-74
2022/01/14 07:28:38;;;;;;;58.92;21.65;;;;;;;2.12;100.00;103709.88;5025591;28;20512;-74
2022/01/14 07:31:04;;;;;;;61.00;21.75;;;;;;;2.14;100.00;103713.53;5023766;28;20079;-75
2022/01/14 07:33:29;;;;;;;47.65;20.63;;;;;;;2.18;100.00;103711.41;5024303;28;20016;-75
2022/01/14 07:35:54;;;;;;;60.15;21.90;;;;;;;2.20;100.00;103708.94;5020683;28;20033;-74
2022/01/14 07:38:20;;;;;;;66.70;23.40;;;;;;;2.23;100.00;103713.53;5020082;28;20405;-74
2022/01/14 07:40:45;;;;;;;50.83;21.90;;;;;;;2.26;100.00;103714.72;5024365;28;20034;-75
2022/01/14 07:43:11;;;;;;;58.28;23.48;;;;;;;2.28;100.00;103708.00;5025177;28;20033;-74
2022/01/14 07:45:36;;;;;;;54.80;23.30;;;;;;;2.31;100.00;103723.88;5035276;28;20029;-74
2022/01/14 07:48:02;;;;;;;57.03;23.77;;;;;;;2.36;100.00;103726.91;5018278;28;20428;-74
2022/01/14 07:50:27;;;;;;;57.80;23.77;;;;;;;2.39;100.00;103721.09;5016070;28;20026;-74
2022/01/14 07:52:52;;;;;;;55.35;24.23;;;;;;;2.43;100.00;103713.75;5021468;28;20096;-74
2022/01/14 07:55:19;;;;;;;48.00;21.88;;;;;;;2.48;100.00;103711.59;5026561;28;20021;-75
2022/01/14 07:57:44;;;;;;;57.95;23.98;;;;;;;2.51;100.00;103718.00;5032391;28;20029;-75
2022/01/14 08:00:10;;;;;;;64.00;25.60;;;;;;;2.55;100.00;103728.69;5030198;28;20033;-74
2022/01/14 08:02:37;;;;;;;73.35;26.02;;;;;;;2.58;100.00;103719.53;5025141;28;20128;-75
2022/01/14 08:05:03;;;;;;;62.13;25.63;;;;;;;2.61;100.00;103725.00;5022960;28;20025;-75
2022/01/14 08:07:30;;;;;;;57.05;26.00;;;;;;;2.66;100.00;103723.75;5028786;28;20017;-75
2022/01/14 08:09:55;;;;;;;63.25;25.30;;;;;;;2.70;100.00;103723.28;5023888;28;20401;-75
2022/01/14 08:12:21;;;;;;;61.10;26.20;;;;;;;2.74;100.00;103715.75;5023336;28;20034;-74
2022/01/14 08:14:46;;;;;;;67.88;26.67;;;;;;;2.77;100.00;103716.06;5023855;28;20362;-74
2022/01/14 08:17:14;;;;;;;61.17;24.27;;;;;;;2.81;100.00;103721.72;5023721;28;20116;-75
2022/01/14 08:19:40;;;;;;;56.58;24.70;;;;;;;2.86;100.00;103714.31;5031621;28;20025;-76
2022/01/14 08:22:07;;;;;;;64.20;26.00;;;;;;;2.88;100.00;103723.19;5034423;28;20028;-75
2022/01/14 08:24:34;;;;;;;56.08;25.08;;;;;;;2.91;100.00;103730.38;5029121;28;20116;-75
2022/01/14 08:27:01;;;;;;;63.83;26.48;;;;;;;2.91;100.00;103736.50;5026320;28;20034;-75
2022/01/14 08:29:30;;;;;;;61.40;25.00;;;;;;;2.94;100.00;103731.56;5035552;28;20075;-75
2022/01/14 08:31:55;;;;;;;61.05;26.55;;;;;;;2.96;100.00;103739.53;5027420;28;20486;-75
2022/01/14 08:34:21;;;;;;;63.80;26.67;;;;;;;2.99;100.00;103735.53;5026008;28;20026;-74
2022/01/14 08:36:47;;;;;;;56.95;24.95;;;;;;;3.02;100.00;103741.00;5022062;28;20350;-75
2022/01/14 08:39:13;;;;;;;64.95;26.80;;;;;;;3.06;100.00;103737.00;5019744;28;20156;-75
2022/01/14 08:41:39;;;;;;;61.17;26.48;;;;;;;3.11;100.00;103734.88;5017165;28;20389;-75
2022/01/14 08:44:05;;;;;;;51.25;24.55;;;;;;;3.16;100.00;103744.00;5024647;28;20029;-75
2022/01/14 08:46:30;;;;;;;53.72;25.77;;;;;;;3.23;100.00;103733.41;5021824;28;20029;-75
2022/01/14 08:48:58;;;;;;;59.20;27.42;;;;;;;3.22;100.00;103739.38;5034609;28;20040;-75
2022/01/14 08:51:24;;;;;;;67.53;27.52;;;;;;;3.24;100.00;103734.31;5028159;28;20045;-74
2022/01/14 08:53:49;;;;;;;61.45;26.58;;;;;;;3.25;100.00;103734.44;5024193;28;20061;-74
2022/01/14 08:56:15;;;;;;;65.97;28.83;;;;;;;3.28;100.00;103724.31;5022445;28;20025;-75
2022/01/14 08:58:40;;;;;;;73.93;29.15;;;;;;;3.35;100.00;103731.00;5027347;28;20033;-75
2022/01/14 09:01:06;;;;;;;66.18;28.65;;;;;;;3.38;100.00;103731.31;5029471;28;20093;-75
2022/01/14 09:03:31;;;;;;;62.83;27.20;;;;;;;3.44;100.00;103724.06;5032848;28;20025;-75
2022/01/14 09:05:56;;;;;;;64.22;29.55;;;;;;;3.50;100.00;103721.09;5027574;28;20029;-75
2022/01/14 09:08:22;;;;;;;64.10;29.33;;;;;;;3.53;100.00;103721.41;5021598;28;20033;-74
2022/01/14 09:10:47;;;;;;;71.35;29.98;;;;;;;3.59;100.00;103727.16;5029024;28;20028;-75
2022/01/14 09:13:13;;;;;;;80.13;31.77;;;;;;;3.62;100.00;103710.91;5025645;28;20055;-74
2022/01/14 09:15:39;;;;;;;67.75;31.08;;;;;;;3.71;100.00;103724.75;5032361;28;20036;-74
2022/01/14 09:18:04;;;;;;;80.68;33.20;;;;;;;3.81;100.00;103734.31;5028781;28;20033;-74
2022/01/14 09:20:29;;;;;;;77.15;32.70;;;;;;;3.85;100.00;103726.00;5025557;28;20024;-74
2022/01/14 09:22:57;;;;;;;84.07;34.40;;;;;;;3.93;100.00;103725.00;5025539;28;20041;-75
2022/01/14 09:25:23;;;;;;;91.10;36.90;;;;;;;4.02;100.00;103736.25;5025471;28;20025;-74
2022/01/14 09:27:51;;;;;;;95.93;36.17;;;;;;;4.10;100.00;103733.47;5028027;28;20037;-75
2022/01/14 09:30:22;;;;;;;99.00;39.35;;;;;;;4.19;100.00;103731.66;5033438;28;20034;-75
2022/01/14 09:32:47;;;;;;;109.22;43.83;;;;;;;4.28;100.00;103734.19;5026937;28;20470;-75
2022/01/14 09:35:13;;;;;;;106.80;43.53;;;;;;;4.38;100.00;103737.75;5027204;28;20109;-74
2022/01/14 09:37:40;;;;;;;114.15;45.72;;;;;;;4.47;100.00;103727.19;5023493;28;20165;-75
2022/01/14 09:40:07;;;;;;;112.43;44.63;;;;;;;4.56;100.00;103742.75;5025393;28;20045;-75
2022/01/14 09:42:32;;;;;;;124.63;46.90;;;;;;;4.62;100.00;103732.84;5026820;28;20113;-75
2022/01/14 09:44:58;;;;;;;111.63;45.40;;;;;;;4.69;100.00;103723.84;5025786;28;20108;-75
2022/01/14 09:47:24;;;;;;;125.38;47.97;;;;;;;4.77;100.00;103720.22;5025341;28;20045;-73
2022/01/14 09:49:50;;;;;;;125.82;48.30;;;;;;;4.84;100.00;103724.28;5026017;28;20036;-74
2022/01/14 09:52:16;;;;;;;123.10;47.63;;;;;;;4.85;100.00;103732.22;5023183;28;20489;-73
2022/01/14 09:54:43;;;;;;;117.50;45.53;;;;;;;4.88;100.00;103737.75;5025797;28;20370;-73
2022/01/14 09:57:11;;;;;;;130.63;46.55;;;;;;;4.93;100.00;103732.91;5026157;28;20025;-74
2022/01/14 09:59:37;;;;;;;111.72;47.00;;;;;;;4.94;100.00;103729.53;5030626;28;20083;-73
2022/01/14 10:02:02;;;;;;;103.63;42.92;;;;;;;5.02;100.00;103727.56;5030667;28;20021;-73
2022/01/14 10:04:28;;;;;;;120.68;45.38;;;;;;;5.07;100.00;103735.00;5023317;28;20034;-73
2022/01/14 10:06:56;;;;;;;126.03;43.92;;;;;;;5.12;100.00;103731.88;5026763;28;20052;-73
2022/01/14 10:09:43;;;;;;;103.30;43.78;;;;;;;5.18;100.00;103735.00;5024060;28;20093;-73
2022/01/14 10:12:17;;;;;;;108.00;42.05;;;;;;;5.21;100.00;103733.56;5027730;28;20037;-73
2022/01/14 10:15:06;;;;;;;117.68;42.83;;;;;;;5.25;100.00;103729.53;5025826;28;20458;-73
2022/01/14 10:17:38;;;;;;;114.88;43.22;;;;;;;5.31;100.00;103726.53;5025182;28;20127;-73
2022/01/14 10:20:06;;;;;;;105.53;43.58;;;;;;;5.38;100.00;103732.38;5023345;28;20474;-74
2022/01/14 10:22:34;;;;;;;109.28;45.03;;;;;;;5.43;100.00;103729.28;5028873;28;20120;-75
2022/01/14 10:25:09;;;;;;;92.72;41.50;;;;;;;5.49;100.00;103733.28;5023951;28;20024;-73
2022/01/14 10:27:45;;;;;;;94.25;38.20;;;;;;;5.52;100.00;103724.78;5030577;28;20413;-73
2022/01/14 10:30:18;;;;;;;95.15;40.88;;;;;;;5.56;100.00;103737.31;5025911;28;20476;-73
2022/01/14 10:32:51;;;;;;;85.22;36.13;;;;;;;5.60;100.00;103734.19;5024952;28;20100;-74
2022/01/14 10:35:18;;;;;;;82.15;35.05;;;;;;;5.67;100.00;103726.09;5040914;28;20021;-75
2022/01/14 10:37:44;;;;;;;80.57;35.25;;;;;;;5.73;100.00;103729.19;5025423;28;20032;-74
2022/01/14 10:40:21;;;;;;;66.32;33.38;;;;;;;5.79;100.00;103730.50;5024973;28;20132;-74
2022/01/14 10:42:52;;;;;;;75.78;33.72;;;;;;;5.83;100.00;103729.97;5023009;28;20034;-74
2022/01/14 10:45:21;;;;;;;75.72;35.10;;;;;;;5.84;100.00;103735.31;5023832;28;20576;-74
2022/01/14 10:48:10;;;;;;;83.07;36.55;;;;;;;5.86;100.00;103738.03;5022911;28;20030;-74
2022/01/14 10:50:41;;;;;;;74.28;34.80;;;;;;;5.90;100.00;103734.91;5043431;28;20044;-73
2022/01/14 10:53:14;;;;;;;61.55;33.22;;;;;;;5.95;100.00;103722.22;5024838;28;20095;-73
2022/01/14 10:55:48;;;;;;;69.67;31.60;;;;;;;5.98;100.00;103736.50;5025381;28;20122;-74
2022/01/14 10:58:27;;;;;;;58.47;29.73;;;;;;;6.04;100.00;103723.03;5024286;28;20065;-69
2022/01/14 11:00:59;;;;;;;60.65;29.88;;;;;;;6.05;100.00;103725.75;5022256;28;20030;-70
2022/01/14 11:03:44;;;;;;;65.20;30.50;;;;;;;6.08;100.00;103720.78;5028516;28;20319;-70
2022/01/14 11:06:19;;;;;;;62.13;27.52;;;;;;;6.10;100.00;103722.59;5031302;28;20021;-70
2022/01/14 11:08:46;;;;;;;50.72;23.90;;;;;;;6.12;100.00;103721.94;5028912;28;20120;-70
2022/01/14 11:11:13;;;;;;;49.38;23.30;;;;;;;6.16;100.00;103721.41;5014619;28;20029;-70
2022/01/14 11:13:39;;;;;;;47.08;21.90;;;;;;;6.16;100.00;103707.41;5015923;28;20018;-71
2022/01/14 11:16:04;;;;;;;44.67;23.50;;;;;;;6.16;100.00;103710.00;5026748;28;20079;-67
2022/01/14 11:18:30;;;;;;;47.67;22.30;;;;;;;6.15;100.00;103711.72;5031162;28;20090;-70
2022/01/14 11:23:39;;;;;;;;;;;;;;;6.21;100.00;103712.25;5022731;28;20048;-69
2022/01/14 11:26:08;;;;;;;40.17;18.53;;;;;;;6.15;100.00;103711.72;5031612;28;20368;-70
2022/01/14 11:28:36;;;;;;;43.05;16.10;;;;;;;6.12;100.00;103711.50;5025867;28;20383;-70
2022/01/14 11:31:27;;;;;;;37.85;18.73;;;;;;;6.13;100.00;103705.47;5018830;28;20045;-70
2022/01/14 11:33:54;;;;;;;35.42;17.83;;;;;;;6.16;100.00;103710.00;5015529;28;20053;-70